DLH4EE EDDM-LGMK
Flight info
| Callsign | DLH4EE |
|---|---|
| Flight time | N/A |
| Altitude | 29000 |
| Route | ROTAX3W ROTAX L603 LATLO DCT OBEDI/N0427F350 DCT KFT DCT MAGAM DCT TIVNU DCT KEB DCT MEDUX UM867 KOGAT DCT ERANA DCT TSL UL617 SKP UN137 AGAPU |
| Aircraft | A21N/M-SDE2E3FGIJ1LORWXYZ/HB1 |
Departure
| Time | 2026-05-05 14:19 |
|---|---|
| Airport | Munich Airport (EDDM) |
Arrival
| Time | N/A |
|---|---|
| Airport | Mykonos Island National Airport (LGMK) |
| Time | Latitude | Longitude | Altitude | Speed | Heading |
|---|---|---|---|---|---|
| 2026-05-05 13:22 | 48.35732 | 11.79693 | 1482 ft | 0 kts | 83° |
| 2026-05-05 14:04 | 48.35732 | 11.79692 | 1518 ft | 1 kts | 83° |
| 2026-05-05 14:04 | 48.35729 | 11.79658 | 1486 ft | 4 kts | 81° |
| 2026-05-05 14:05 | 48.35725 | 11.79618 | 1486 ft | 4 kts | 83° |
| 2026-05-05 14:05 | 48.35723 | 11.79585 | 1488 ft | 4 kts | 94° |
| 2026-05-05 14:05 | 48.35730 | 11.79551 | 1486 ft | 4 kts | 137° |
| 2026-05-05 14:05 | 48.35751 | 11.79538 | 1477 ft | 4 kts | 173° |
| 2026-05-05 14:06 | 48.35768 | 11.79535 | 1487 ft | 0 kts | 173° |
| 2026-05-05 14:10 | 48.35757 | 11.79537 | 1479 ft | 3 kts | 173° |
| 2026-05-05 14:10 | 48.35722 | 11.79543 | 1487 ft | 7 kts | 173° |
| 2026-05-05 14:10 | 48.35663 | 11.79553 | 1485 ft | 10 kts | 173° |
| 2026-05-05 14:11 | 48.35581 | 11.79567 | 1485 ft | 13 kts | 174° |
| 2026-05-05 14:11 | 48.35485 | 11.79583 | 1488 ft | 15 kts | 173° |
| 2026-05-05 14:11 | 48.35375 | 11.79602 | 1485 ft | 17 kts | 173° |
| 2026-05-05 14:11 | 48.35254 | 11.79622 | 1491 ft | 18 kts | 173° |
| 2026-05-05 14:12 | 48.35129 | 11.79643 | 1486 ft | 18 kts | 173° |
| 2026-05-05 14:12 | 48.34997 | 11.79667 | 1491 ft | 20 kts | 173° |
| 2026-05-05 14:12 | 48.34891 | 11.79688 | 1488 ft | 16 kts | 173° |
| 2026-05-05 14:12 | 48.34810 | 11.79736 | 1481 ft | 12 kts | 114° |
| 2026-05-05 14:13 | 48.34812 | 11.79835 | 1485 ft | 8 kts | 81° |
| 2026-05-05 14:13 | 48.34820 | 11.79925 | 1491 ft | 10 kts | 83° |
| 2026-05-05 14:13 | 48.34829 | 11.80038 | 1487 ft | 12 kts | 83° |
| 2026-05-05 14:13 | 48.34828 | 11.80146 | 1489 ft | 10 kts | 116° |
| 2026-05-05 14:14 | 48.34788 | 11.80213 | 1485 ft | 8 kts | 142° |
| 2026-05-05 14:14 | 48.34747 | 11.80241 | 1489 ft | 6 kts | 173° |
| 2026-05-05 14:14 | 48.34706 | 11.80246 | 1491 ft | 6 kts | 175° |
| 2026-05-05 14:14 | 48.34664 | 11.80251 | 1485 ft | 6 kts | 173° |
| 2026-05-05 14:15 | 48.34622 | 11.80260 | 1477 ft | 6 kts | 172° |
| 2026-05-05 14:15 | 48.34585 | 11.80268 | 1489 ft | 0 kts | 170° |
| 2026-05-05 14:17 | 48.34584 | 11.80268 | 1489 ft | 1 kts | 170° |
| 2026-05-05 14:17 | 48.34566 | 11.80273 | 1477 ft | 4 kts | 171° |
| 2026-05-05 14:17 | 48.34524 | 11.80280 | 1479 ft | 8 kts | 176° |
| 2026-05-05 14:18 | 48.34474 | 11.80274 | 1486 ft | 7 kts | 217° |
| 2026-05-05 14:18 | 48.34459 | 11.80201 | 1488 ft | 7 kts | 264° |
| 2026-05-05 14:18 | 48.34451 | 11.80086 | 1491 ft | 24 kts | 264° |
| 2026-05-05 14:18 | 48.34407 | 11.79489 | 1480 ft | 92 kts | 263° |
| 2026-05-05 14:19 | 48.34311 | 11.78237 | 1491 ft | 146 kts | 264° |
| 2026-05-05 14:19 | 48.34178 | 11.76502 | 1541 ft | 182 kts | 264° |
| 2026-05-05 14:19 | 48.34017 | 11.74659 | 2226 ft | 176 kts | 264° |
| 2026-05-05 14:19 | 48.33712 | 11.72872 | 2797 ft | 183 kts | 241° |
| 2026-05-05 14:20 | 48.32821 | 11.71431 | 3226 ft | 198 kts | 214° |
| 2026-05-05 14:20 | 48.31462 | 11.70820 | 3685 ft | 214 kts | 185° |
| 2026-05-05 14:20 | 48.29942 | 11.70795 | 4318 ft | 228 kts | 182° |
| 2026-05-05 14:20 | 48.28326 | 11.71171 | 5013 ft | 241 kts | 159° |
| 2026-05-05 14:21 | 48.26819 | 11.72490 | 5590 ft | 262 kts | 147° |
| 2026-05-05 14:21 | 48.25303 | 11.74108 | 6288 ft | 272 kts | 146° |
| 2026-05-05 14:21 | 48.23739 | 11.75768 | 7147 ft | 276 kts | 146° |
| 2026-05-05 14:21 | 48.22154 | 11.77418 | 8042 ft | 278 kts | 147° |
| 2026-05-05 14:22 | 48.20551 | 11.79065 | 8965 ft | 280 kts | 147° |
| 2026-05-05 14:22 | 48.18930 | 11.80718 | 9805 ft | 284 kts | 147° |
| 2026-05-05 14:22 | 48.17390 | 11.82582 | 10507 ft | 293 kts | 135° |
| 2026-05-05 14:22 | 48.16030 | 11.85014 | 10906 ft | 313 kts | 130° |
| 2026-05-05 14:23 | 48.14654 | 11.87625 | 11461 ft | 324 kts | 130° |
| 2026-05-05 14:23 | 48.13244 | 11.90266 | 12266 ft | 327 kts | 130° |
| 2026-05-05 14:23 | 48.11802 | 11.92922 | 13106 ft | 330 kts | 131° |
| 2026-05-05 14:23 | 48.10351 | 11.95566 | 13886 ft | 334 kts | 131° |
| 2026-05-05 14:24 | 48.08868 | 11.98258 | 14632 ft | 337 kts | 131° |
| 2026-05-05 14:24 | 48.07383 | 12.01064 | 15347 ft | 343 kts | 126° |
| 2026-05-05 14:24 | 48.06304 | 12.04279 | 16042 ft | 350 kts | 114° |
| 2026-05-05 14:24 | 48.05463 | 12.07658 | 16754 ft | 354 kts | 113° |
| 2026-05-05 14:25 | 48.04620 | 12.11136 | 17460 ft | 357 kts | 113° |
| 2026-05-05 14:25 | 48.03758 | 12.14632 | 18127 ft | 360 kts | 114° |
| 2026-05-05 14:25 | 48.02880 | 12.18147 | 18676 ft | 363 kts | 114° |
| 2026-05-05 14:25 | 48.01986 | 12.21698 | 19216 ft | 367 kts | 114° |
| 2026-05-05 14:26 | 48.01079 | 12.25271 | 19744 ft | 370 kts | 114° |
| 2026-05-05 14:26 | 48.00163 | 12.28883 | 20258 ft | 373 kts | 114° |
| 2026-05-05 14:26 | 47.99238 | 12.32514 | 20766 ft | 376 kts | 114° |
| 2026-05-05 14:26 | 47.98277 | 12.36162 | 21271 ft | 378 kts | 118° |
| 2026-05-05 14:27 | 47.96935 | 12.39482 | 21733 ft | 374 kts | 133° |
| 2026-05-05 14:27 | 47.95121 | 12.42254 | 22263 ft | 373 kts | 140° |
| 2026-05-05 14:27 | 47.93203 | 12.44861 | 22760 ft | 375 kts | 141° |
| 2026-05-05 14:27 | 47.91262 | 12.47494 | 23253 ft | 377 kts | 141° |
| 2026-05-05 14:28 | 47.89328 | 12.50151 | 23682 ft | 380 kts | 140° |
| 2026-05-05 14:28 | 47.87390 | 12.52835 | 24089 ft | 382 kts | 140° |
| 2026-05-05 14:28 | 47.85450 | 12.55530 | 24491 ft | 384 kts | 140° |
| 2026-05-05 14:28 | 47.83479 | 12.58268 | 24947 ft | 387 kts | 140° |
| 2026-05-05 14:29 | 47.81522 | 12.61047 | 25400 ft | 390 kts | 139° |
| 2026-05-05 14:29 | 47.79605 | 12.63913 | 25834 ft | 392 kts | 138° |
| 2026-05-05 14:29 | 47.77685 | 12.66788 | 26405 ft | 391 kts | 138° |
| 2026-05-05 14:29 | 47.75760 | 12.69665 | 26765 ft | 396 kts | 138° |
| 2026-05-05 14:30 | 47.73803 | 12.72580 | 27005 ft | 402 kts | 138° |
| 2026-05-05 14:30 | 47.71820 | 12.75535 | 27303 ft | 405 kts | 138° |
| 2026-05-05 14:30 | 47.69827 | 12.78503 | 27732 ft | 408 kts | 138° |
| 2026-05-05 14:30 | 47.67819 | 12.81488 | 28139 ft | 410 kts | 138° |
| 2026-05-05 14:31 | 47.65794 | 12.84494 | 28599 ft | 412 kts | 138° |
| 2026-05-05 14:31 | 47.63758 | 12.87506 | 28970 ft | 415 kts | 138° |
| 2026-05-05 14:31 | 47.61704 | 12.90544 | 29313 ft | 418 kts | 138° |
| 2026-05-05 14:31 | 47.59642 | 12.93592 | 29672 ft | 420 kts | 138° |
| 2026-05-05 14:32 | 47.57566 | 12.96656 | 29987 ft | 423 kts | 138° |
| 2026-05-05 14:32 | 47.55478 | 12.99735 | 30265 ft | 425 kts | 139° |
| 2026-05-05 14:32 | 47.53373 | 13.02832 | 30517 ft | 428 kts | 139° |
| 2026-05-05 14:32 | 47.51262 | 13.05939 | 30750 ft | 430 kts | 138° |
| 2026-05-05 14:33 | 47.49125 | 13.09077 | 30973 ft | 434 kts | 138° |
| 2026-05-05 14:33 | 47.46983 | 13.12222 | 31232 ft | 437 kts | 138° |
| 2026-05-05 14:33 | 47.44823 | 13.15391 | 31478 ft | 439 kts | 139° |
| 2026-05-05 14:33 | 47.42646 | 13.18577 | 31765 ft | 440 kts | 139° |
| 2026-05-05 14:34 | 47.40473 | 13.21752 | 32090 ft | 440 kts | 139° |
| 2026-05-05 14:34 | 47.38329 | 13.24882 | 32395 ft | 440 kts | 139° |
| 2026-05-05 14:34 | 47.36147 | 13.28064 | 32703 ft | 441 kts | 139° |
| 2026-05-05 14:34 | 47.33937 | 13.31284 | 32988 ft | 441 kts | 139° |
| 2026-05-05 14:35 | 47.31839 | 13.34593 | 33280 ft | 444 kts | 134° |
| 2026-05-05 14:35 | 47.29841 | 13.38073 | 33529 ft | 444 kts | 133° |
| 2026-05-05 14:35 | 47.27861 | 13.41547 | 33852 ft | 443 kts | 133° |
| 2026-05-05 14:35 | 47.25882 | 13.45016 | 34140 ft | 442 kts | 133° |
| 2026-05-05 14:36 | 47.23901 | 13.48474 | 34335 ft | 442 kts | 133° |
| 2026-05-05 14:36 | 47.21916 | 13.51936 | 34574 ft | 442 kts | 133° |
| 2026-05-05 14:36 | 47.19932 | 13.55392 | 34743 ft | 443 kts | 134° |
| 2026-05-05 14:36 | 47.17936 | 13.58852 | 34876 ft | 444 kts | 134° |
| 2026-05-05 14:37 | 47.13933 | 13.65772 | 34891 ft | 445 kts | 134° |
| 2026-05-05 14:37 | 47.10600 | 13.71529 | 34885 ft | 445 kts | 133° |
| 2026-05-05 14:38 | 47.05952 | 13.79574 | 34885 ft | 444 kts | 133° |
| 2026-05-05 14:38 | 47.02598 | 13.85346 | 34904 ft | 444 kts | 134° |
| 2026-05-05 14:39 | 46.98612 | 13.92178 | 34905 ft | 444 kts | 134° |
| 2026-05-05 14:39 | 46.94601 | 13.99049 | 34906 ft | 444 kts | 134° |
| 2026-05-05 14:40 | 46.90572 | 14.05934 | 34906 ft | 446 kts | 134° |
| 2026-05-05 14:40 | 46.86530 | 14.12821 | 34916 ft | 446 kts | 134° |
| 2026-05-05 14:41 | 46.82488 | 14.19687 | 34924 ft | 446 kts | 134° |
| 2026-05-05 14:41 | 46.78442 | 14.26545 | 34937 ft | 446 kts | 134° |
| 2026-05-05 14:42 | 46.75216 | 14.31995 | 34937 ft | 446 kts | 134° |